createdAt,value
2023-01-31T00:00:08.031Z,31.60
2023-01-31T00:02:36.348Z,30.55
2023-01-31T00:05:04.945Z,27.80
2023-01-31T00:07:33.241Z,29.92
2023-01-31T00:10:01.480Z,24.50
2023-01-31T00:12:29.773Z,27.80
2023-01-31T00:15:00.538Z,26.27
2023-01-31T00:17:28.735Z,26.45
2023-01-31T00:19:57.229Z,30.67
2023-01-31T00:22:25.874Z,28.25
2023-01-31T00:24:54.086Z,32.78
2023-01-31T00:27:22.529Z,34.55
2023-01-31T00:29:51.021Z,23.58
2023-01-31T00:32:20.612Z,25.23
2023-01-31T00:34:48.959Z,28.42
2023-01-31T00:37:18.559Z,26.35
2023-01-31T00:39:46.830Z,29.13
2023-01-31T00:42:15.564Z,27.10
2023-01-31T00:44:44.103Z,35.88
2023-01-31T00:47:12.263Z,25.55
2023-01-31T00:49:42.257Z,26.00
2023-01-31T00:52:10.580Z,31.55
2023-01-31T00:54:39.795Z,28.67
2023-01-31T00:57:08.107Z,31.20
2023-01-31T00:59:37.062Z,25.45
2023-01-31T01:02:05.311Z,31.77
2023-01-31T01:04:34.418Z,30.42
2023-01-31T01:07:04.505Z,33.35
2023-01-31T01:09:33.528Z,28.95
2023-01-31T01:12:02.135Z,26.10
2023-01-31T01:14:30.716Z,35.00
2023-01-31T01:16:59.203Z,34.03
2023-01-31T01:19:27.531Z,30.80
2023-01-31T01:21:56.799Z,24.80
2023-01-31T01:24:27.304Z,29.70
2023-01-31T01:26:55.632Z,27.08
2023-01-31T01:29:23.901Z,31.05
2023-01-31T01:31:52.157Z,34.78
2023-01-31T01:34:20.634Z,26.00
2023-01-31T01:36:48.925Z,27.30
2023-01-31T01:39:17.435Z,29.85
2023-01-31T01:41:48.355Z,32.30
2023-01-31T01:44:44.716Z,27.80
2023-01-31T01:47:18.033Z,26.08
2023-01-31T01:49:49.989Z,28.40
2023-01-31T01:52:20.236Z,30.65
2023-01-31T01:54:51.481Z,25.13
2023-01-31T01:57:27.187Z,28.88
2023-01-31T02:00:00.378Z,27.13
2023-01-31T02:02:30.021Z,34.88
2023-01-31T02:04:58.822Z,23.77
2023-01-31T02:07:27.983Z,29.83
2023-01-31T02:10:01.401Z,29.90
2023-01-31T02:12:33.665Z,28.33
2023-01-31T02:15:02.359Z,30.38
2023-01-31T02:17:30.548Z,32.40
2023-01-31T02:20:14.667Z,25.15
2023-01-31T02:22:54.245Z,29.60
2023-01-31T02:25:59.736Z,29.98
2023-01-31T02:29:01.318Z,31.25
2023-01-31T02:32:02.492Z,25.60
2023-01-31T02:34:39.496Z,34.45
2023-01-31T02:37:18.931Z,25.38
2023-01-31T02:39:55.826Z,23.85
2023-01-31T02:42:31.225Z,28.05
2023-01-31T02:45:08.065Z,29.45
2023-01-31T02:47:50.514Z,27.85
2023-01-31T02:50:26.835Z,30.90
2023-01-31T02:53:03.406Z,26.67
2023-01-31T02:55:55.045Z,25.27
2023-01-31T02:58:26.793Z,27.88
2023-01-31T03:00:59.280Z,30.63
2023-01-31T03:03:31.916Z,29.92
2023-01-31T03:06:37.364Z,28.13
2023-01-31T03:09:11.756Z,23.30
2023-01-31T03:11:49.830Z,27.25
2023-01-31T03:14:28.656Z,28.95
2023-01-31T03:17:20.006Z,21.02
2023-01-31T03:19:55.898Z,27.92
2023-01-31T03:22:29.473Z,25.33
2023-01-31T03:27:29.677Z,30.50
2023-01-31T03:30:02.615Z,22.90
2023-01-31T03:32:36.188Z,24.70
2023-01-31T03:37:38.964Z,27.35
2023-01-31T03:40:15.204Z,26.58
2023-01-31T03:42:49.304Z,26.30
2023-01-31T03:45:24.890Z,27.83
2023-01-31T03:47:55.404Z,23.65
2023-01-31T03:50:28.443Z,27.45
2023-01-31T03:53:01.731Z,28.45
2023-01-31T03:55:36.123Z,24.50
2023-01-31T03:58:07.339Z,23.42
2023-01-31T04:00:38.668Z,28.55
2023-01-31T04:03:14.951Z,30.48
2023-01-31T04:05:43.687Z,27.80
2023-01-31T04:08:12.379Z,31.10
2023-01-31T04:10:42.608Z,27.17
2023-01-31T04:13:11.538Z,26.33
2023-01-31T04:15:39.800Z,26.67
2023-01-31T04:18:08.123Z,25.83
2023-01-31T04:20:36.950Z,29.33
2023-01-31T04:23:05.700Z,24.92
2023-01-31T04:25:34.273Z,27.52
2023-01-31T04:28:04.764Z,29.35
2023-01-31T04:30:33.300Z,23.60
2023-01-31T04:33:01.593Z,27.33
2023-01-31T04:35:30.121Z,30.55
2023-01-31T04:37:58.332Z,26.98
2023-01-31T04:40:26.803Z,23.88
2023-01-31T04:42:55.189Z,24.63
2023-01-31T04:45:24.831Z,25.10
2023-01-31T04:47:53.208Z,26.00
2023-01-31T04:50:21.600Z,23.80
2023-01-31T04:52:51.504Z,28.55
2023-01-31T04:55:20.883Z,18.13
2023-01-31T04:57:49.738Z,24.35
2023-01-31T05:00:18.967Z,29.98
2023-01-31T05:02:50.118Z,29.63
2023-01-31T05:05:19.142Z,28.90
2023-01-31T05:07:48.111Z,29.65
2023-01-31T05:10:16.593Z,26.38
2023-01-31T05:12:45.453Z,25.27
2023-01-31T05:15:13.799Z,22.50
2023-01-31T05:17:42.047Z,28.00
2023-01-31T05:20:13.108Z,20.67
2023-01-31T05:22:41.363Z,26.83
2023-01-31T05:25:10.135Z,25.40
2023-01-31T05:27:38.481Z,21.95
2023-01-31T05:30:08.049Z,22.63
2023-01-31T05:32:39.981Z,23.85
2023-01-31T05:35:08.818Z,27.63
2023-01-31T05:37:38.368Z,26.88
2023-01-31T05:40:07.663Z,26.85
2023-01-31T05:42:36.081Z,26.05
2023-01-31T05:45:04.816Z,25.98
2023-01-31T05:47:33.214Z,26.60
2023-01-31T05:50:01.621Z,26.45
2023-01-31T05:52:30.162Z,26.15
2023-01-31T05:55:00.370Z,21.08
2023-01-31T05:57:28.778Z,27.52
2023-01-31T05:59:57.248Z,26.08
2023-01-31T06:02:25.684Z,24.20
2023-01-31T06:04:53.962Z,31.17
2023-01-31T06:07:23.656Z,32.03
2023-01-31T06:09:52.102Z,26.05
2023-01-31T06:12:21.857Z,27.33
2023-01-31T06:14:50.637Z,26.50
2023-01-31T06:17:18.921Z,24.88
2023-01-31T06:19:47.133Z,32.38
2023-01-31T06:22:15.501Z,23.63
2023-01-31T06:24:43.964Z,23.10
2023-01-31T06:27:12.196Z,20.42
2023-01-31T06:29:41.914Z,25.55
2023-01-31T06:32:10.256Z,19.67
2023-01-31T06:34:38.468Z,23.08
2023-01-31T06:37:09.420Z,23.83
2023-01-31T06:39:37.964Z,29.38
2023-01-31T06:42:06.409Z,27.95
2023-01-31T06:44:34.770Z,26.08
2023-01-31T06:47:04.718Z,26.45
2023-01-31T06:49:32.978Z,29.50
2023-01-31T06:52:01.404Z,28.08
2023-01-31T06:54:30.362Z,25.77
2023-01-31T06:56:58.677Z,31.88
2023-01-31T06:59:27.061Z,28.77
2023-01-31T07:01:55.961Z,29.17
2023-01-31T07:04:25.962Z,33.58
2023-01-31T07:06:54.406Z,25.75
2023-01-31T07:09:23.061Z,23.73
2023-01-31T07:11:51.286Z,25.23
2023-01-31T07:14:19.706Z,29.08
2023-01-31T07:16:48.574Z,22.02
2023-01-31T07:19:16.854Z,23.80
2023-01-31T07:21:49.099Z,23.90
2023-01-31T07:24:18.054Z,27.17
2023-01-31T07:26:46.590Z,33.85
2023-01-31T07:29:14.938Z,24.85
2023-01-31T07:31:43.611Z,24.67
2023-01-31T07:34:11.864Z,22.75
2023-01-31T07:36:40.096Z,29.90
2023-01-31T07:39:10.185Z,32.83
2023-01-31T07:41:38.438Z,29.70
2023-01-31T07:44:08.652Z,30.13
2023-01-31T07:46:37.072Z,27.50
2023-01-31T07:49:05.478Z,26.17
2023-01-31T07:51:34.564Z,30.15
2023-01-31T07:54:03.205Z,27.60
2023-01-31T07:56:33.434Z,21.98
2023-01-31T07:59:01.799Z,26.23
2023-01-31T08:01:50.626Z,27.83
2023-01-31T08:04:22.637Z,31.73
2023-01-31T08:06:54.799Z,24.55
2023-01-31T08:09:23.210Z,22.10
2023-01-31T08:11:53.127Z,32.35
2023-01-31T08:14:25.642Z,36.53
2023-01-31T08:16:54.385Z,23.80
2023-01-31T08:19:23.099Z,26.88
2023-01-31T08:21:51.773Z,20.90
2023-01-31T08:24:19.978Z,26.60
2023-01-31T08:26:48.498Z,30.98
2023-01-31T08:29:18.655Z,29.92
2023-01-31T08:31:47.098Z,26.02
2023-01-31T08:34:15.465Z,24.58
2023-01-31T08:36:45.214Z,28.35
2023-01-31T08:39:13.500Z,29.65
2023-01-31T08:41:41.983Z,30.77
2023-01-31T08:44:10.518Z,24.55
2023-01-31T08:46:41.048Z,21.70
2023-01-31T08:49:11.618Z,24.67
2023-01-31T08:51:39.949Z,30.63
2023-01-31T08:54:10.575Z,19.95
2023-01-31T08:56:39.011Z,29.40
2023-01-31T08:59:07.470Z,28.25
2023-01-31T09:01:35.882Z,25.40
2023-01-31T09:04:06.257Z,23.75
2023-01-31T09:06:34.891Z,24.05
2023-01-31T09:09:03.570Z,29.05
2023-01-31T09:11:32.145Z,22.40
2023-01-31T09:14:00.799Z,26.02
2023-01-31T09:16:29.857Z,25.35
2023-01-31T09:18:58.499Z,26.23
2023-01-31T09:21:28.661Z,20.38
2023-01-31T09:23:59.088Z,21.35
2023-01-31T09:26:27.424Z,21.27
2023-01-31T09:28:56.390Z,23.25
2023-01-31T09:31:25.183Z,20.98
2023-01-31T09:33:54.478Z,26.25
2023-01-31T09:36:25.137Z,20.98
2023-01-31T09:38:57.666Z,20.02
2023-01-31T09:41:32.104Z,27.77
2023-01-31T09:44:04.002Z,27.73
2023-01-31T09:46:38.438Z,20.48
2023-01-31T09:49:12.049Z,21.05
2023-01-31T09:51:41.806Z,20.20
2023-01-31T09:54:20.978Z,23.75
2023-01-31T09:57:01.128Z,24.38
2023-01-31T09:59:39.584Z,19.52
2023-01-31T10:02:33.999Z,22.88
2023-01-31T10:05:20.284Z,23.88
2023-01-31T10:08:01.977Z,23.40
2023-01-31T10:10:38.133Z,22.38
2023-01-31T10:13:14.146Z,24.02
2023-01-31T10:15:45.465Z,24.08
2023-01-31T10:18:18.461Z,19.95
2023-01-31T10:20:51.408Z,21.98
2023-01-31T10:23:28.001Z,20.77
2023-01-31T10:26:01.863Z,20.02
2023-01-31T10:28:37.402Z,25.60
2023-01-31T10:31:12.823Z,27.33
2023-01-31T10:33:49.226Z,21.05
2023-01-31T10:36:28.002Z,19.92
2023-01-31T10:39:02.154Z,20.45
2023-01-31T10:41:44.978Z,15.85
2023-01-31T10:44:23.423Z,22.52
2023-01-31T10:46:53.912Z,17.77
2023-01-31T10:49:24.645Z,24.35
2023-01-31T10:52:08.764Z,18.83
2023-01-31T10:54:49.051Z,16.00
2023-01-31T10:57:19.329Z,19.95
2023-01-31T10:59:50.726Z,21.38
2023-01-31T11:02:22.493Z,18.83
2023-01-31T11:04:52.629Z,21.50
2023-01-31T11:07:21.615Z,14.35
2023-01-31T11:09:54.191Z,21.17
2023-01-31T11:12:40.515Z,19.02
2023-01-31T11:15:16.715Z,18.63
2023-01-31T11:17:46.805Z,21.80
2023-01-31T11:20:26.263Z,21.83
2023-01-31T11:22:55.607Z,21.05
2023-01-31T11:25:25.879Z,21.65
2023-01-31T11:27:59.292Z,20.48
2023-01-31T11:30:30.728Z,18.75
2023-01-31T11:32:59.469Z,16.77
2023-01-31T11:35:30.453Z,20.45
2023-01-31T11:38:01.258Z,24.27
2023-01-31T11:40:32.545Z,21.63
2023-01-31T11:43:04.081Z,24.73
2023-01-31T11:45:33.336Z,18.83
2023-01-31T11:48:08.722Z,19.10
2023-01-31T11:50:40.208Z,22.55
2023-01-31T11:53:18.432Z,20.75
2023-01-31T11:55:48.994Z,18.80
2023-01-31T11:58:24.833Z,23.95
2023-01-31T12:00:57.103Z,25.17
2023-01-31T12:03:26.828Z,23.92
2023-01-31T12:06:04.960Z,21.83
2023-01-31T12:08:37.094Z,21.90
2023-01-31T12:11:07.788Z,18.48
2023-01-31T12:13:50.863Z,22.27
2023-01-31T12:16:21.332Z,24.40
2023-01-31T12:18:58.986Z,23.58
2023-01-31T12:21:41.024Z,25.88
2023-01-31T12:24:21.449Z,26.42
2023-01-31T12:26:54.202Z,20.60
2023-01-31T12:29:46.146Z,22.57
2023-01-31T12:32:31.237Z,18.27
2023-01-31T12:35:20.135Z,18.77
2023-01-31T12:37:59.294Z,20.00
2023-01-31T12:40:41.722Z,20.08
2023-01-31T12:43:23.907Z,18.58
2023-01-31T12:46:09.746Z,22.55
2023-01-31T12:49:07.011Z,19.35
2023-01-31T12:51:43.444Z,18.63
2023-01-31T12:54:33.737Z,19.52
2023-01-31T12:57:23.257Z,19.42
2023-01-31T12:59:58.386Z,23.33
2023-01-31T13:02:40.526Z,21.90
2023-01-31T13:05:21.569Z,23.33
2023-01-31T13:07:53.794Z,22.52
2023-01-31T13:10:34.809Z,20.23
2023-01-31T13:13:05.988Z,23.02
2023-01-31T13:15:44.363Z,24.40
2023-01-31T13:18:15.663Z,20.10
2023-01-31T13:20:47.843Z,20.75
2023-01-31T13:23:22.903Z,26.10
2023-01-31T13:25:56.223Z,17.88
2023-01-31T13:28:29.570Z,21.70
2023-01-31T13:31:00.757Z,24.98
2023-01-31T13:33:36.735Z,21.60
2023-01-31T13:36:23.237Z,19.13
2023-01-31T13:38:52.555Z,20.95
2023-01-31T13:41:27.851Z,20.45
2023-01-31T13:43:57.597Z,15.20
2023-01-31T13:46:31.208Z,14.95
2023-01-31T13:51:37.998Z,14.80
2023-01-31T13:54:12.888Z,12.00
2023-01-31T13:56:42.856Z,14.82
2023-01-31T13:59:12.127Z,17.45
2023-01-31T14:01:48.234Z,10.85
2023-01-31T14:04:37.813Z,16.02
2023-01-31T14:07:20.789Z,9.68
2023-01-31T14:10:37.686Z,14.20
2023-01-31T14:13:43.557Z,11.60
2023-01-31T14:16:42.566Z,11.82
2023-01-31T14:20:04.606Z,14.88
2023-01-31T14:22:35.032Z,7.78
2023-01-31T14:25:06.292Z,11.93
2023-01-31T14:27:47.941Z,9.57
2023-01-31T14:30:31.698Z,12.98
2023-01-31T14:33:09.311Z,9.43
2023-01-31T14:36:06.936Z,11.00
2023-01-31T14:38:54.383Z,11.18
2023-01-31T14:41:36.140Z,11.65
2023-01-31T14:44:16.494Z,10.77
2023-01-31T14:47:25.955Z,9.95
2023-01-31T14:50:17.967Z,9.23
2023-01-31T14:53:06.306Z,10.70
2023-01-31T14:55:46.146Z,13.50
2023-01-31T14:58:19.880Z,13.52
2023-01-31T15:00:53.859Z,16.15
2023-01-31T15:03:26.504Z,14.05
2023-01-31T15:05:56.928Z,13.20
2023-01-31T15:08:42.407Z,10.90
2023-01-31T15:11:42.249Z,10.85
2023-01-31T15:14:35.262Z,10.13
2023-01-31T15:17:27.662Z,10.98
2023-01-31T15:20:15.234Z,15.68
2023-01-31T15:22:45.420Z,13.88
2023-01-31T15:25:27.168Z,10.50
2023-01-31T15:27:57.999Z,10.18
2023-01-31T15:30:29.139Z,14.63
2023-01-31T15:33:01.820Z,10.48
2023-01-31T15:35:33.391Z,11.93
2023-01-31T15:38:06.781Z,11.82
2023-01-31T15:40:36.619Z,12.68
2023-01-31T15:43:18.917Z,11.27
2023-01-31T15:45:51.804Z,12.05
2023-01-31T15:48:22.287Z,10.20
2023-01-31T15:50:52.714Z,12.98
2023-01-31T15:53:23.888Z,10.80
2023-01-31T15:55:57.005Z,13.23
2023-01-31T15:58:26.965Z,11.38
2023-01-31T16:00:56.989Z,15.10
2023-01-31T16:03:27.678Z,13.63
2023-01-31T16:05:58.922Z,15.77
2023-01-31T16:08:31.398Z,10.57
2023-01-31T16:11:04.876Z,12.32
2023-01-31T16:13:35.462Z,10.35
2023-01-31T16:16:05.740Z,12.15
2023-01-31T16:18:34.892Z,10.50
2023-01-31T16:21:16.196Z,11.18
2023-01-31T16:23:45.692Z,8.38
2023-01-31T16:26:22.063Z,10.93
2023-01-31T16:28:54.815Z,15.43
2023-01-31T16:31:25.784Z,12.43
2023-01-31T16:33:57.451Z,13.20
2023-01-31T16:36:28.737Z,13.57
2023-01-31T16:39:02.173Z,11.45
2023-01-31T16:41:48.377Z,12.55
2023-01-31T16:44:20.131Z,12.73
2023-01-31T16:46:50.627Z,11.38
2023-01-31T16:49:24.448Z,11.25
2023-01-31T16:51:56.105Z,11.77
2023-01-31T16:54:25.493Z,11.20
2023-01-31T16:57:23.888Z,11.45
2023-01-31T16:59:54.083Z,9.32
2023-01-31T17:02:33.544Z,11.20
2023-01-31T17:05:10.456Z,9.27
2023-01-31T17:07:39.292Z,9.57
2023-01-31T17:10:10.199Z,10.30
2023-01-31T17:12:41.429Z,15.00
2023-01-31T17:15:15.085Z,14.90
2023-01-31T17:20:15.914Z,18.15
2023-01-31T17:22:50.427Z,16.52
2023-01-31T17:25:28.595Z,20.98
2023-01-31T17:27:58.643Z,18.92
2023-01-31T17:30:27.938Z,12.90
2023-01-31T17:32:57.294Z,15.65
2023-01-31T17:35:30.152Z,17.08
2023-01-31T17:37:58.522Z,15.80
2023-01-31T17:40:26.953Z,19.95
2023-01-31T17:42:59.165Z,16.70
2023-01-31T17:45:27.650Z,17.35
2023-01-31T17:47:55.967Z,16.83
2023-01-31T17:50:27.273Z,17.40
2023-01-31T17:52:56.187Z,18.65
2023-01-31T17:55:25.214Z,13.88
2023-01-31T17:57:53.819Z,21.50
2023-01-31T18:00:23.768Z,15.73
2023-01-31T18:02:53.187Z,19.13
2023-01-31T18:05:33.516Z,19.08
2023-01-31T18:08:05.937Z,21.80
2023-01-31T18:10:34.169Z,16.55
2023-01-31T18:13:02.638Z,17.40
2023-01-31T18:15:32.845Z,16.42
2023-01-31T18:18:01.244Z,20.45
2023-01-31T18:20:29.529Z,23.10
2023-01-31T18:22:58.231Z,22.83
2023-01-31T18:25:26.480Z,25.85
2023-01-31T18:27:54.984Z,19.08
2023-01-31T18:30:23.689Z,22.17
2023-01-31T18:32:53.445Z,19.80
2023-01-31T18:35:22.655Z,27.00
2023-01-31T18:37:51.450Z,22.33
2023-01-31T18:40:19.833Z,27.05
2023-01-31T18:42:48.347Z,19.85
2023-01-31T18:45:16.960Z,19.33
2023-01-31T18:47:45.325Z,22.70
2023-01-31T18:50:15.106Z,21.20
2023-01-31T18:52:44.106Z,24.48
2023-01-31T18:55:12.406Z,23.30
2023-01-31T18:57:40.880Z,23.90
2023-01-31T19:00:11.036Z,23.42
2023-01-31T19:02:39.284Z,27.13
2023-01-31T19:05:08.809Z,21.00
2023-01-31T19:07:38.684Z,20.52
2023-01-31T19:10:07.810Z,24.42
2023-01-31T19:12:39.438Z,22.20
2023-01-31T19:15:09.529Z,22.20
2023-01-31T19:17:38.668Z,24.60
2023-01-31T19:20:08.030Z,23.95
2023-01-31T19:22:37.943Z,24.08
2023-01-31T19:25:09.417Z,20.15
2023-01-31T19:27:37.717Z,23.17
2023-01-31T19:30:07.276Z,22.60
2023-01-31T19:32:35.694Z,25.63
2023-01-31T19:35:03.967Z,20.33
2023-01-31T19:37:32.574Z,22.98
2023-01-31T19:40:02.354Z,25.23
2023-01-31T19:42:30.695Z,21.15
2023-01-31T19:44:59.035Z,23.08
2023-01-31T19:47:27.447Z,23.48
2023-01-31T19:49:55.731Z,27.98
2023-01-31T19:52:23.990Z,30.40
2023-01-31T19:54:52.388Z,31.33
2023-01-31T19:57:22.009Z,29.90
2023-01-31T19:59:50.583Z,24.15
2023-01-31T20:02:19.028Z,23.55
2023-01-31T20:04:47.441Z,25.88
2023-01-31T20:07:15.705Z,31.50
2023-01-31T20:09:44.170Z,31.73
2023-01-31T20:12:12.601Z,30.63
2023-01-31T20:14:42.360Z,29.73
2023-01-31T20:17:10.560Z,41.78
2023-01-31T20:19:38.951Z,31.23
2023-01-31T20:22:07.221Z,25.50
2023-01-31T20:24:35.562Z,28.48
2023-01-31T20:27:03.951Z,24.23
2023-01-31T20:29:32.399Z,27.17
2023-01-31T20:32:02.210Z,30.23
2023-01-31T20:34:30.705Z,31.67
2023-01-31T20:36:59.172Z,31.73
2023-01-31T20:39:27.420Z,28.58
2023-01-31T20:41:57.268Z,30.83
2023-01-31T20:44:26.133Z,30.90
2023-01-31T20:46:54.861Z,30.60
2023-01-31T20:49:25.718Z,27.13
2023-01-31T20:51:54.220Z,32.45
2023-01-31T20:54:22.532Z,21.35
2023-01-31T20:56:52.163Z,22.35
2023-01-31T20:59:20.606Z,24.23
2023-01-31T21:01:48.916Z,30.23
2023-01-31T21:04:17.883Z,32.42
2023-01-31T21:06:47.682Z,29.83
2023-01-31T21:09:15.895Z,32.20
2023-01-31T21:11:44.247Z,35.20
2023-01-31T21:14:12.612Z,28.88
2023-01-31T21:16:40.846Z,38.00
2023-01-31T21:19:09.260Z,35.47
2023-01-31T21:21:37.540Z,30.52
2023-01-31T21:24:08.386Z,32.83
2023-01-31T21:26:37.324Z,31.70
2023-01-31T21:29:06.226Z,37.58
2023-01-31T21:31:34.547Z,38.65
2023-01-31T21:34:06.003Z,33.75
2023-01-31T21:36:36.312Z,35.00
2023-01-31T21:39:06.251Z,39.35
2023-01-31T21:41:52.024Z,41.42
2023-01-31T21:44:20.586Z,36.75
2023-01-31T21:46:49.803Z,32.42
2023-01-31T21:49:18.139Z,39.78
2023-01-31T21:51:46.428Z,31.35
2023-01-31T21:54:16.185Z,38.22
2023-01-31T21:56:44.475Z,37.75
2023-01-31T21:59:13.283Z,36.25
2023-01-31T22:01:41.564Z,38.17
2023-01-31T22:04:09.779Z,41.17
2023-01-31T22:06:40.849Z,38.30
2023-01-31T22:09:11.971Z,41.95
2023-01-31T22:11:42.579Z,42.47
2023-01-31T22:14:12.787Z,39.17
2023-01-31T22:16:42.228Z,44.28
2023-01-31T22:19:12.200Z,44.85
2023-01-31T22:21:41.635Z,41.90
2023-01-31T22:24:12.274Z,42.53
2023-01-31T22:26:44.154Z,46.97
2023-01-31T22:29:15.598Z,41.40
2023-01-31T22:31:44.759Z,43.08
2023-01-31T22:34:15.431Z,39.83
2023-01-31T22:36:43.744Z,49.92
2023-01-31T22:39:15.946Z,46.58
2023-01-31T22:41:46.019Z,42.58
2023-01-31T22:44:14.220Z,40.90
2023-01-31T22:46:42.592Z,42.58
2023-01-31T22:49:11.294Z,42.92
2023-01-31T22:51:39.500Z,42.67
2023-01-31T22:54:07.769Z,45.70
2023-01-31T22:56:36.666Z,45.97
2023-01-31T22:59:08.339Z,40.15
2023-01-31T23:01:38.273Z,40.95
2023-01-31T23:04:09.062Z,43.35
2023-01-31T23:06:38.577Z,37.95
2023-01-31T23:09:07.273Z,37.70
2023-01-31T23:11:35.730Z,37.13
2023-01-31T23:14:05.512Z,37.35
2023-01-31T23:16:51.041Z,31.10
2023-01-31T23:19:19.444Z,31.02
2023-01-31T23:21:49.025Z,30.90
2023-01-31T23:24:19.211Z,34.83
2023-01-31T23:26:47.914Z,36.70
2023-01-31T23:29:17.627Z,31.33
2023-01-31T23:31:46.245Z,29.38
2023-01-31T23:34:14.867Z,27.48
2023-01-31T23:36:43.105Z,30.73
2023-01-31T23:39:12.038Z,29.83
2023-01-31T23:41:40.372Z,30.65
2023-01-31T23:44:08.677Z,35.53
2023-01-31T23:46:38.576Z,32.28
2023-01-31T23:49:07.262Z,25.23
2023-01-31T23:51:36.120Z,27.10
2023-01-31T23:54:04.944Z,32.88
2023-01-31T23:56:33.579Z,30.27
2023-01-31T23:59:01.854Z,31.48
